Terminal Aerodrome Forecast
Issued by NWS

Home | Current Version | Previous Version | Text Only | Print | Product List | Glossary On
Versions: 1 2 3 4 5 6 7 8 9 10 11 12 13 14 15
908
FTUS43 KBIS 180926 AAB
TAFMOT
TAF AMD
KMOT 180926Z 1809/1906 29022G32KT P6SM FEW035 SCT250 WS020/28050KT
     FM181100 28025G35KT P6SM SCT250 WS020/29040KT
     FM181700 27027G39KT P6SM SKC
     FM190000 26011KT P6SM FEW250
     FM190200 24007KT P6SM FEW250=

USA.gov is the U.S. government's official web portal to all federal, state and local government web resources and services.